Main page
METAR-TAF:

METAR-TAF

Airports :

Växjö Småland Airport

Växjö, Sweden

latitude: 56-51N, longitude: 014-50E, elevation: 199 m

Current weather observation

The report was made 31 minutes ago, at 17:50 UTC
Wind 3 kt from the West
Temperature 21°C
Humidity 69%
Pressure 1013 hPa
Visibility 10 km or more

METAR: ESMX 231750Z AUTO 27003KT 9999 NCD 21/15 Q1013

Time: 20:21 (18:21 UTC)

Forecast

The report was made 21 hours and 51 minutes ago, at 20:30 UTC
Forecast valid from 22 at 21 UTC to 23 at 01 UTC
Wind 2 kt from variable directions
Visibility 10 km or more
Broken clouds at a height of 2500 ft
Probability 40%
from 22 at 21 UTC to 22 at 24 UTC
Visibility: 4000 m
Broken clouds at a height of 800 ft
mist,

TAF: ESMX 222030Z 2221/2301 VRB02KT 9999 BKN025 PROB40 2221/2224 4000 BR BKN008

Weather observations and forecasts of more than 4000 airports (METAR and TAF reports).

The available stations are represented by yellow and red dots on the map.

Hover mouse over dot to see the name of the station.

Then click to see weather observations and forecasts.

To change the map : click on the green buttons with a black cross to zoom in, on the green button with a dash to zoom out, or on the green arrows for adjacent maps.


METAR-TAF: